aviador You're here:

LKPD Decoded Metar

PARDUBICE in CZECH REPUBLIC
Report Time2017-09-20 16:00:00
UTC Time2017-09-20 16:28:48
Flight Rules vfr VFR
Wind220° at 04 kt
W.Decomp.*RWY 27: 2.4 kt HW 3.2 kt LCW
W.Rank220° ranks 17
Current wind is below 220° avg. (4.7)
Visibility9999 m
Phenomena:N/A
Clouds:N/A
Expected CloudBase > 2,000 ft AGL from Temp-Dew spread
CeilingNone
Temp14°C (ISA 0)
Dew Point09°C (72% RH)
AAT12.4°C
QNH1018 hPa
Density Alt784 ft
Elevation741 ft
Report Wrong Elevation
Raw Report
LKPD 201600Z 22004KT CAVOK 14/09 Q1018 NOSIG RMK BLU BLU=

Extra information for LKPD:More info

Metar Taf Metar & Taf Last 4 Metars F.Rules Stats Wind Profile Meteogram Temp Stats Airport Information Weather charts Add Link Nearby VenuesMetar ALERT Operation Metar Decoded Social comments